createdAt,value
2023-01-30T00:01:57.391Z,-2.00
2023-01-30T00:04:23.957Z,-2.00
2023-01-30T00:06:50.506Z,-2.00
2023-01-30T00:09:17.123Z,-2.00
2023-01-30T00:11:43.739Z,-2.00
2023-01-30T00:14:10.452Z,-1.90
2023-01-30T00:16:37.079Z,-1.90
2023-01-30T00:19:03.987Z,-1.80
2023-01-30T00:21:30.676Z,-1.80
2023-01-30T00:23:57.232Z,-1.80
2023-01-30T00:26:23.797Z,-1.80
2023-01-30T00:28:50.392Z,-1.70
2023-01-30T00:31:16.952Z,-1.70
2023-01-30T00:33:43.647Z,-1.70
2023-01-30T00:36:10.657Z,-1.70
2023-01-30T00:38:37.384Z,-1.70
2023-01-30T00:41:04.171Z,-1.70
2023-01-30T00:43:30.829Z,-1.70
2023-01-30T00:45:58.051Z,-1.70
2023-01-30T00:48:24.765Z,-1.70
2023-01-30T00:50:51.382Z,-1.60
2023-01-30T00:53:18.148Z,-1.60
2023-01-30T00:55:45.080Z,-1.60
2023-01-30T00:58:12.897Z,-1.60
2023-01-30T01:00:39.806Z,-1.60
2023-01-30T01:03:07.194Z,-1.50
2023-01-30T01:05:34.156Z,-1.50
2023-01-30T01:08:00.763Z,-1.50
2023-01-30T01:10:27.412Z,-1.50
2023-01-30T01:12:54.202Z,-1.50
2023-01-30T01:15:22.471Z,-1.50
2023-01-30T01:17:50.284Z,-1.50
2023-01-30T01:20:18.320Z,-1.50
2023-01-30T01:22:45.674Z,-1.50
2023-01-30T01:25:12.532Z,-1.50
2023-01-30T01:27:39.134Z,-1.50
2023-01-30T01:30:06.794Z,-1.50
2023-01-30T01:32:33.635Z,-1.50
2023-01-30T01:35:00.221Z,-1.50
2023-01-30T01:37:26.809Z,-1.50
2023-01-30T01:39:53.389Z,-1.60
2023-01-30T01:42:19.971Z,-1.60
2023-01-30T01:45:03.903Z,-1.60
2023-01-30T01:47:33.785Z,-1.60
2023-01-30T01:50:00.527Z,-1.70
2023-01-30T01:52:27.293Z,-1.70
2023-01-30T01:55:00.993Z,-1.80
2023-01-30T01:57:34.780Z,-1.70
2023-01-30T02:00:09.773Z,-1.70
2023-01-30T02:02:36.434Z,-1.70
2023-01-30T02:05:04.174Z,-1.70
2023-01-30T02:07:51.484Z,-1.60
2023-01-30T02:10:21.605Z,-1.70
2023-01-30T02:12:50.205Z,-1.60
2023-01-30T02:15:19.472Z,-1.60
2023-01-30T02:17:46.218Z,-1.60
2023-01-30T02:20:51.704Z,-1.60
2023-01-30T02:23:42.929Z,-1.60
2023-01-30T02:26:18.629Z,-1.60
2023-01-30T02:29:08.471Z,-1.60
2023-01-30T02:31:47.369Z,-1.60
2023-01-30T02:34:35.389Z,-1.70
2023-01-30T02:37:20.113Z,-1.60
2023-01-30T02:40:00.561Z,-1.60
2023-01-30T02:42:40.889Z,-1.60
2023-01-30T02:45:18.844Z,-1.70
2023-01-30T02:48:09.970Z,-1.60
2023-01-30T02:50:39.963Z,-1.60
2023-01-30T02:53:07.125Z,-1.60
2023-01-30T02:55:34.304Z,-1.60
2023-01-30T02:58:02.813Z,-1.60
2023-01-30T03:01:03.554Z,-1.60
2023-01-30T03:03:44.651Z,-1.60
2023-01-30T03:06:29.553Z,-1.60
2023-01-30T03:09:27.008Z,-1.60
2023-01-30T03:12:18.390Z,-1.60
2023-01-30T03:14:47.963Z,-1.60
2023-01-30T03:17:18.147Z,-1.60
2023-01-30T03:19:44.959Z,-1.60
2023-01-30T03:22:11.703Z,-1.60
2023-01-30T03:24:38.475Z,-1.60
2023-01-30T03:27:10.395Z,-1.60
2023-01-30T03:29:37.462Z,-1.60
2023-01-30T03:32:04.631Z,-1.60
2023-01-30T03:34:31.233Z,-1.60
2023-01-30T03:36:57.904Z,-1.50
2023-01-30T03:39:25.311Z,-1.50
2023-01-30T03:41:52.662Z,-1.40
2023-01-30T03:44:19.460Z,-1.40
2023-01-30T03:46:46.014Z,-1.40
2023-01-30T03:49:13.305Z,-1.40
2023-01-30T03:51:39.960Z,-1.40
2023-01-30T03:54:06.559Z,-1.40
2023-01-30T03:56:33.140Z,-1.40
2023-01-30T03:58:59.697Z,-1.40
2023-01-30T04:01:26.280Z,-1.40
2023-01-30T04:03:52.914Z,-1.40
2023-01-30T04:06:19.496Z,-1.40
2023-01-30T04:08:46.052Z,-1.40
2023-01-30T04:11:12.626Z,-1.40
2023-01-30T04:13:39.177Z,-1.40
2023-01-30T04:16:26.397Z,-1.40
2023-01-30T04:18:53.030Z,-1.30
2023-01-30T04:21:20.211Z,-1.40
2023-01-30T04:23:47.087Z,-1.40
2023-01-30T04:26:13.724Z,-1.40
2023-01-30T04:28:40.406Z,-1.50
2023-01-30T04:31:07.114Z,-1.50
2023-01-30T04:33:34.022Z,-1.50
2023-01-30T04:36:01.456Z,-1.50
2023-01-30T04:38:29.273Z,-1.60
2023-01-30T04:40:57.330Z,-1.50
2023-01-30T04:43:25.226Z,-1.60
2023-01-30T04:45:52.455Z,-1.60
2023-01-30T04:48:20.106Z,-1.60
2023-01-30T04:50:48.936Z,-1.60
2023-01-30T04:53:16.351Z,-1.50
2023-01-30T04:55:43.010Z,-1.60
2023-01-30T04:58:09.831Z,-1.50
2023-01-30T05:00:36.541Z,-1.50
2023-01-30T05:03:03.559Z,-1.60
2023-01-30T05:05:30.141Z,-1.60
2023-01-30T05:07:56.678Z,-1.60
2023-01-30T05:10:23.355Z,-1.70
2023-01-30T05:12:49.967Z,-1.60
2023-01-30T05:15:16.999Z,-1.60
2023-01-30T05:17:44.712Z,-1.60
2023-01-30T05:20:13.194Z,-1.60
2023-01-30T05:22:39.772Z,-1.60
2023-01-30T05:25:07.223Z,-1.50
2023-01-30T05:27:34.075Z,-1.50
2023-01-30T05:30:00.673Z,-1.50
2023-01-30T05:32:27.276Z,-1.50
2023-01-30T05:34:53.880Z,-1.50
2023-01-30T05:37:20.444Z,-1.50
2023-01-30T05:39:47.360Z,-1.50
2023-01-30T05:42:15.524Z,-1.50
2023-01-30T05:44:42.293Z,-1.50
2023-01-30T05:47:08.853Z,-1.50
2023-01-30T05:49:35.409Z,-1.50
2023-01-30T05:52:01.962Z,-1.50
2023-01-30T05:54:28.535Z,-1.50
2023-01-30T05:56:55.050Z,-1.50
2023-01-30T05:59:21.648Z,-1.40
2023-01-30T06:01:48.242Z,-1.40
2023-01-30T06:04:14.791Z,-1.30
2023-01-30T06:06:41.343Z,-1.30
2023-01-30T06:09:10.336Z,-1.30
2023-01-30T06:11:36.913Z,-1.30
2023-01-30T06:14:03.581Z,-1.20
2023-01-30T06:16:30.271Z,-1.20
2023-01-30T06:18:56.955Z,-1.30
2023-01-30T06:21:23.545Z,-1.20
2023-01-30T06:23:50.213Z,-1.20
2023-01-30T06:26:16.872Z,-1.20
2023-01-30T06:28:43.711Z,-1.20
2023-01-30T06:31:10.366Z,-1.10
2023-01-30T06:33:37.166Z,-1.10
2023-01-30T06:36:04.361Z,-1.10
2023-01-30T06:38:30.958Z,-1.10
2023-01-30T06:40:57.529Z,-1.10
2023-01-30T06:43:24.086Z,-1.10
2023-01-30T06:45:50.662Z,-1.00
2023-01-30T06:48:17.298Z,-1.00
2023-01-30T06:50:46.468Z,-1.00
2023-01-30T06:53:13.252Z,-1.00
2023-01-30T06:55:39.882Z,-1.00
2023-01-30T06:58:11.995Z,-1.00
2023-01-30T07:00:40.873Z,-1.00
2023-01-30T07:03:16.209Z,-1.00
2023-01-30T07:05:44.450Z,-1.10
2023-01-30T07:08:11.855Z,-1.10
2023-01-30T07:10:39.088Z,-1.10
2023-01-30T07:13:05.689Z,-1.00
2023-01-30T07:15:32.345Z,-1.00
2023-01-30T07:17:59.371Z,-1.10
2023-01-30T07:20:26.205Z,-1.10
2023-01-30T07:22:54.433Z,-1.00
2023-01-30T07:25:22.550Z,-1.00
2023-01-30T07:27:53.973Z,-1.00
2023-01-30T07:30:20.706Z,-1.00
2023-01-30T07:32:52.106Z,-1.00
2023-01-30T07:35:19.150Z,-0.90
2023-01-30T07:37:47.554Z,-0.90
2023-01-30T07:40:15.032Z,-0.90
2023-01-30T07:42:41.746Z,-0.80
2023-01-30T07:45:08.944Z,-0.70
2023-01-30T07:47:35.522Z,-0.70
2023-01-30T07:50:02.352Z,-0.70
2023-01-30T07:52:28.941Z,-0.80
2023-01-30T07:54:55.508Z,-0.70
2023-01-30T07:57:22.078Z,-0.70
2023-01-30T07:59:48.643Z,-0.70
2023-01-30T08:02:15.184Z,-0.70
2023-01-30T08:04:41.819Z,-0.60
2023-01-30T08:07:08.398Z,-0.60
2023-01-30T08:09:34.995Z,-0.50
2023-01-30T08:12:01.588Z,-0.50
2023-01-30T08:14:28.131Z,-0.50
2023-01-30T08:16:56.674Z,-0.50
2023-01-30T08:19:23.313Z,-0.40
2023-01-30T08:21:49.949Z,-0.40
2023-01-30T08:24:16.531Z,-0.30
2023-01-30T08:26:43.239Z,-0.30
2023-01-30T08:29:09.860Z,-0.30
2023-01-30T08:31:36.575Z,-0.30
2023-01-30T08:34:03.161Z,-0.30
2023-01-30T08:36:29.715Z,-0.30
2023-01-30T08:38:56.280Z,-0.30
2023-01-30T08:41:22.835Z,-0.20
2023-01-30T08:43:49.360Z,-0.20
2023-01-30T08:46:15.933Z,-0.20
2023-01-30T08:48:49.683Z,-0.10
2023-01-30T08:51:17.080Z,-0.10
2023-01-30T08:53:43.698Z,0.00
2023-01-30T08:56:10.254Z,0.10
2023-01-30T08:58:36.846Z,0.10
2023-01-30T09:01:07.593Z,0.10
2023-01-30T09:03:34.227Z,0.10
2023-01-30T09:06:00.802Z,0.10
2023-01-30T09:08:27.432Z,0.10
2023-01-30T09:10:58.580Z,0.20
2023-01-30T09:13:25.609Z,0.20
2023-01-30T09:15:52.205Z,0.30
2023-01-30T09:18:18.867Z,0.30
2023-01-30T09:20:45.466Z,0.40
2023-01-30T09:23:12.011Z,0.50
2023-01-30T09:25:38.666Z,0.40
2023-01-30T09:28:05.347Z,0.50
2023-01-30T09:30:31.985Z,0.60
2023-01-30T09:32:58.619Z,0.60
2023-01-30T09:35:25.240Z,0.70
2023-01-30T09:37:53.774Z,0.70
2023-01-30T09:40:29.435Z,0.70
2023-01-30T09:43:05.183Z,0.70
2023-01-30T09:46:11.493Z,0.70
2023-01-30T09:48:44.472Z,0.70
2023-01-30T09:51:50.802Z,0.80
2023-01-30T09:54:21.034Z,0.80
2023-01-30T09:57:21.376Z,0.90
2023-01-30T09:59:57.477Z,1.00
2023-01-30T10:02:44.454Z,1.10
2023-01-30T10:05:11.991Z,1.30
2023-01-30T10:07:55.046Z,1.40
2023-01-30T10:10:39.083Z,1.40
2023-01-30T10:13:05.605Z,1.40
2023-01-30T10:15:48.588Z,1.30
2023-01-30T10:18:49.383Z,1.40
2023-01-30T10:21:31.596Z,1.40
2023-01-30T10:24:35.862Z,1.50
2023-01-30T10:27:04.854Z,1.50
2023-01-30T10:29:36.033Z,1.50
2023-01-30T10:32:11.991Z,1.50
2023-01-30T10:34:42.545Z,1.70
2023-01-30T10:37:14.933Z,1.90
2023-01-30T10:40:05.075Z,2.00
2023-01-30T10:42:39.242Z,2.10
2023-01-30T10:45:40.877Z,2.20
2023-01-30T10:48:42.618Z,2.30
2023-01-30T10:51:34.283Z,2.50
2023-01-30T10:54:22.915Z,2.60
2023-01-30T10:57:13.671Z,2.50
2023-01-30T10:59:53.566Z,2.50
2023-01-30T11:02:24.545Z,2.50
2023-01-30T11:05:04.659Z,2.50
2023-01-30T11:07:32.853Z,2.50
2023-01-30T11:10:00.247Z,2.60
2023-01-30T11:12:27.252Z,2.60
2023-01-30T11:14:59.429Z,2.60
2023-01-30T11:17:35.169Z,2.60
2023-01-30T11:20:14.055Z,2.60
2023-01-30T11:22:50.334Z,2.70
2023-01-30T11:25:22.802Z,2.70
2023-01-30T11:27:55.784Z,2.60
2023-01-30T11:30:26.717Z,2.60
2023-01-30T11:33:15.226Z,2.60
2023-01-30T11:36:05.402Z,2.60
2023-01-30T11:38:37.016Z,2.70
2023-01-30T11:41:16.126Z,2.70
2023-01-30T11:43:42.693Z,2.60
2023-01-30T11:46:12.594Z,2.60
2023-01-30T11:49:39.870Z,2.50
2023-01-30T11:51:54.162Z,2.60
2023-01-30T11:54:50.593Z,2.50
2023-01-30T11:57:19.309Z,2.50
2023-01-30T12:00:04.433Z,2.50
2023-01-30T12:02:37.488Z,2.60
2023-01-30T12:05:07.736Z,2.60
2023-01-30T12:07:36.977Z,2.60
2023-01-30T12:10:23.862Z,2.60
2023-01-30T12:12:52.401Z,2.60
2023-01-30T12:18:31.413Z,2.70
2023-01-30T12:21:06.642Z,2.60
2023-01-30T12:23:41.748Z,2.60
2023-01-30T12:26:28.815Z,2.70
2023-01-30T12:29:07.870Z,2.70
2023-01-30T12:31:46.686Z,2.80
2023-01-30T12:34:13.424Z,2.80
2023-01-30T12:36:49.625Z,2.90
2023-01-30T12:39:41.812Z,2.90
2023-01-30T12:42:46.442Z,3.10
2023-01-30T12:45:33.650Z,3.20
2023-01-30T12:48:26.761Z,3.60
2023-01-30T12:51:19.436Z,3.70
2023-01-30T12:53:54.172Z,3.50
2023-01-30T12:56:57.662Z,3.30
2023-01-30T12:59:36.753Z,3.20
2023-01-30T13:02:19.932Z,3.20
2023-01-30T13:05:05.077Z,3.30
2023-01-30T13:11:37.227Z,3.70
2023-01-30T13:14:09.851Z,3.70
2023-01-30T13:16:42.948Z,3.70
2023-01-30T13:19:12.331Z,3.60
2023-01-30T13:21:48.773Z,3.50
2023-01-30T13:24:28.575Z,3.50
2023-01-30T13:27:00.333Z,3.30
2023-01-30T13:29:38.850Z,3.30
2023-01-30T13:32:13.744Z,3.30
2023-01-30T13:34:43.719Z,3.30
2023-01-30T13:37:16.453Z,3.20
2023-01-30T13:39:54.768Z,3.20
2023-01-30T13:42:41.370Z,3.20
2023-01-30T13:45:21.341Z,3.10
2023-01-30T13:48:10.981Z,3.10
2023-01-30T13:50:55.411Z,3.10
2023-01-30T13:53:21.942Z,3.20
2023-01-30T13:56:40.424Z,3.20
2023-01-30T13:59:22.647Z,3.10
2023-01-30T14:02:01.468Z,3.00
2023-01-30T14:04:39.878Z,3.00
2023-01-30T14:07:12.560Z,3.00
2023-01-30T14:10:05.430Z,3.00
2023-01-30T14:12:45.111Z,3.00
2023-01-30T14:15:21.753Z,2.90
2023-01-30T14:17:57.604Z,3.00
2023-01-30T14:20:26.689Z,3.00
2023-01-30T14:22:56.161Z,2.90
2023-01-30T14:25:22.691Z,2.90
2023-01-30T14:27:50.442Z,2.90
2023-01-30T14:30:32.073Z,2.80
2023-01-30T14:33:00.588Z,2.90
2023-01-30T14:35:32.385Z,2.80
2023-01-30T14:38:11.067Z,2.90
2023-01-30T14:40:56.297Z,2.80
2023-01-30T14:43:25.825Z,2.90
2023-01-30T14:45:57.916Z,2.80
2023-01-30T14:48:49.660Z,2.80
2023-01-30T14:51:39.470Z,2.80
2023-01-30T14:54:11.987Z,2.70
2023-01-30T14:56:56.488Z,2.70
2023-01-30T14:59:28.511Z,2.70
2023-01-30T15:02:13.266Z,2.70
2023-01-30T15:04:56.718Z,2.70
2023-01-30T15:07:46.484Z,2.60
2023-01-30T15:10:40.798Z,2.60
2023-01-30T15:13:39.624Z,2.60
2023-01-30T15:16:12.466Z,2.50
2023-01-30T15:18:57.774Z,2.50
2023-01-30T15:21:42.950Z,2.50
2023-01-30T15:24:13.584Z,2.40
2023-01-30T15:26:58.327Z,2.30
2023-01-30T15:29:33.679Z,2.30
2023-01-30T15:32:13.658Z,2.20
2023-01-30T15:35:08.966Z,2.20
2023-01-30T15:37:45.894Z,2.10
2023-01-30T15:40:15.472Z,2.10
2023-01-30T15:43:18.053Z,2.00
2023-01-30T15:46:12.532Z,2.00
2023-01-30T15:49:01.548Z,1.90
2023-01-30T15:51:30.793Z,1.80
2023-01-30T15:53:59.791Z,1.70
2023-01-30T15:56:30.748Z,1.60
2023-01-30T15:59:02.131Z,1.60
2023-01-30T16:01:29.270Z,1.60
2023-01-30T16:03:55.913Z,1.60
2023-01-30T16:06:24.333Z,1.60
2023-01-30T16:08:59.311Z,1.70
2023-01-30T16:11:44.592Z,1.60
2023-01-30T16:14:13.670Z,1.60
2023-01-30T16:16:48.433Z,1.60
2023-01-30T16:19:37.778Z,1.60
2023-01-30T16:22:12.078Z,1.60
2023-01-30T16:24:38.828Z,1.60
2023-01-30T16:27:07.592Z,1.60
2023-01-30T16:29:48.829Z,1.70
2023-01-30T16:32:15.519Z,1.70
2023-01-30T16:34:42.135Z,1.80
2023-01-30T16:37:20.584Z,1.80
2023-01-30T16:40:10.891Z,1.80
2023-01-30T16:42:37.462Z,1.70
2023-01-30T16:45:13.054Z,1.70
2023-01-30T16:47:40.594Z,1.70
2023-01-30T16:50:27.511Z,1.70
2023-01-30T16:52:55.434Z,1.60
2023-01-30T16:55:24.862Z,1.60
2023-01-30T16:58:03.809Z,1.60
2023-01-30T17:00:36.089Z,1.60
2023-01-30T17:03:26.639Z,1.50
2023-01-30T17:05:53.244Z,1.50
2023-01-30T17:08:43.885Z,1.50
2023-01-30T17:11:11.067Z,1.50
2023-01-30T17:13:39.817Z,1.60
2023-01-30T17:16:21.719Z,1.60
2023-01-30T17:18:57.209Z,1.60
2023-01-30T17:21:27.097Z,1.50
2023-01-30T17:24:00.723Z,1.50
2023-01-30T17:26:28.377Z,1.60
2023-01-30T17:28:54.997Z,1.60
2023-01-30T17:31:21.907Z,1.60
2023-01-30T17:33:48.653Z,1.60
2023-01-30T17:36:31.113Z,1.60
2023-01-30T17:38:59.018Z,1.60
2023-01-30T17:41:30.068Z,1.70
2023-01-30T17:43:57.201Z,1.70
2023-01-30T17:46:38.522Z,1.70
2023-01-30T17:49:05.311Z,1.70
2023-01-30T17:51:32.838Z,1.80
2023-01-30T17:53:59.407Z,1.80
2023-01-30T17:56:38.298Z,1.80
2023-01-30T17:59:07.265Z,1.80
2023-01-30T18:01:34.410Z,1.80
2023-01-30T18:04:01.032Z,1.90
2023-01-30T18:06:28.058Z,1.90
2023-01-30T18:08:54.621Z,1.90
2023-01-30T18:11:22.655Z,1.90
2023-01-30T18:13:49.998Z,2.00
2023-01-30T18:16:28.174Z,2.00
2023-01-30T18:18:54.859Z,2.00
2023-01-30T18:21:21.415Z,2.10
2023-01-30T18:23:49.042Z,2.10
2023-01-30T18:26:16.553Z,2.10
2023-01-30T18:28:43.222Z,2.10
2023-01-30T18:31:10.771Z,2.10
2023-01-30T18:33:41.430Z,2.10
2023-01-30T18:36:09.487Z,2.10
2023-01-30T18:38:36.540Z,2.10
2023-01-30T18:41:07.998Z,2.20
2023-01-30T18:43:34.830Z,2.20
2023-01-30T18:46:06.897Z,2.20
2023-01-30T18:48:34.440Z,2.20
2023-01-30T18:51:05.626Z,2.20
2023-01-30T18:53:32.232Z,2.20
2023-01-30T18:55:59.026Z,2.20
2023-01-30T18:58:25.668Z,2.30
2023-01-30T19:00:52.242Z,2.30
2023-01-30T19:03:18.791Z,2.30
2023-01-30T19:05:45.375Z,2.40
2023-01-30T19:08:11.953Z,2.40
2023-01-30T19:10:38.523Z,2.40
2023-01-30T19:13:05.148Z,2.40
2023-01-30T19:15:34.587Z,2.30
2023-01-30T19:18:01.163Z,2.30
2023-01-30T19:20:28.479Z,2.40
2023-01-30T19:22:55.328Z,2.40
2023-01-30T19:25:22.313Z,2.40
2023-01-30T19:27:48.944Z,2.40
2023-01-30T19:30:15.752Z,2.40
2023-01-30T19:32:42.302Z,2.40
2023-01-30T19:35:09.323Z,2.50
2023-01-30T19:37:35.899Z,2.50
2023-01-30T19:40:02.479Z,2.50
2023-01-30T19:42:29.041Z,2.50
2023-01-30T19:44:55.594Z,2.50
2023-01-30T19:47:22.193Z,2.40
2023-01-30T19:49:48.976Z,2.40
2023-01-30T19:52:15.550Z,2.40
2023-01-30T19:54:42.129Z,2.40
2023-01-30T19:57:08.680Z,2.40
2023-01-30T19:59:35.261Z,2.40
2023-01-30T20:02:01.854Z,2.50
2023-01-30T20:04:28.514Z,2.50
2023-01-30T20:06:55.085Z,2.50
2023-01-30T20:09:21.724Z,2.50
2023-01-30T20:11:48.294Z,2.50
2023-01-30T20:14:14.897Z,2.50
2023-01-30T20:16:41.660Z,2.50
2023-01-30T20:19:12.827Z,2.50
2023-01-30T20:21:39.397Z,2.50
2023-01-30T20:24:06.331Z,2.50
2023-01-30T20:26:35.786Z,2.50
2023-01-30T20:29:03.961Z,2.60
2023-01-30T20:31:31.675Z,2.60
2023-01-30T20:34:01.195Z,2.60
2023-01-30T20:36:27.791Z,2.50
2023-01-30T20:38:55.352Z,2.50
2023-01-30T20:41:23.915Z,2.50
2023-01-30T20:43:53.607Z,2.50
2023-01-30T20:46:22.653Z,2.50
2023-01-30T20:48:51.693Z,2.60
2023-01-30T20:51:22.939Z,2.60
2023-01-30T20:53:55.667Z,2.60
2023-01-30T20:56:24.238Z,2.60
2023-01-30T20:58:51.378Z,2.60
2023-01-30T21:01:20.591Z,2.60
2023-01-30T21:03:49.055Z,2.60
2023-01-30T21:06:41.736Z,2.60
2023-01-30T21:09:03.910Z,2.50
2023-01-30T21:14:21.141Z,2.50
2023-01-30T21:16:48.135Z,2.60
2023-01-30T21:19:16.474Z,2.50
2023-01-30T21:21:47.619Z,2.60
2023-01-30T21:24:14.984Z,2.50
2023-01-30T21:26:45.109Z,2.50
2023-01-30T21:29:13.917Z,2.50
2023-01-30T21:31:40.759Z,2.50
2023-01-30T21:34:07.385Z,2.50
2023-01-30T21:36:34.045Z,2.60
2023-01-30T21:39:00.663Z,2.50
2023-01-30T21:41:31.268Z,2.50
2023-01-30T21:43:58.301Z,2.50
2023-01-30T21:46:25.007Z,2.60
2023-01-30T21:48:51.607Z,2.60
2023-01-30T21:51:18.656Z,2.50
2023-01-30T21:53:45.258Z,2.50
2023-01-30T21:56:11.824Z,2.50
2023-01-30T21:58:38.791Z,2.50
2023-01-30T22:04:03.047Z,2.50
2023-01-30T22:06:30.150Z,2.50
2023-01-30T22:09:01.630Z,2.50
2023-01-30T22:11:29.609Z,2.50
2023-01-30T22:13:56.943Z,2.50
2023-01-30T22:16:25.753Z,2.50
2023-01-30T22:18:54.892Z,2.50
2023-01-30T22:21:23.232Z,2.50
2023-01-30T22:23:52.269Z,2.50
2023-01-30T22:26:20.772Z,2.50
2023-01-30T22:28:47.790Z,2.50
2023-01-30T22:31:17.369Z,2.50
2023-01-30T22:33:45.607Z,2.50
2023-01-30T22:36:13.215Z,2.50
2023-01-30T22:38:47.610Z,2.50
2023-01-30T22:41:15.270Z,2.50
2023-01-30T22:43:46.727Z,2.40
2023-01-30T22:46:14.870Z,2.40
2023-01-30T22:48:41.895Z,2.50
2023-01-30T22:51:13.474Z,2.40
2023-01-30T22:53:45.613Z,2.40
2023-01-30T22:56:14.786Z,2.40
2023-01-30T22:58:41.975Z,2.40
2023-01-30T23:01:15.964Z,2.50
2023-01-30T23:03:43.796Z,2.50
2023-01-30T23:06:12.890Z,2.50
2023-01-30T23:08:41.898Z,2.50
2023-01-30T23:11:12.757Z,2.50
2023-01-30T23:13:41.765Z,2.50
2023-01-30T23:16:08.809Z,2.50
2023-01-30T23:18:35.553Z,2.50
2023-01-30T23:21:02.100Z,2.50
2023-01-30T23:23:28.669Z,2.50
2023-01-30T23:25:55.298Z,2.50
2023-01-30T23:28:21.880Z,2.60
2023-01-30T23:30:48.543Z,2.60
2023-01-30T23:33:15.153Z,2.50
2023-01-30T23:35:41.726Z,2.50
2023-01-30T23:38:11.116Z,2.60
2023-01-30T23:40:37.672Z,2.60
2023-01-30T23:43:04.295Z,2.50
2023-01-30T23:45:30.862Z,2.50
2023-01-30T23:47:57.567Z,2.40
2023-01-30T23:50:24.111Z,2.50
2023-01-30T23:52:50.667Z,2.50
2023-01-30T23:55:17.756Z,2.50
2023-01-30T23:57:44.653Z,2.60
